Cornwallville, New York
Current Conditions -  °F | °C
As of 11:20 AM on Friday 19 Dec 2014 (Local Time) from KALB Reporting Station
Broken Clouds Broken Clouds  
Wind Chill: 20°   Ceiling: 2500
Heat Index: 31°   Visibility: 10mi
Dew Point: 21°   Wind: 16mph
Humidity: 67%   Direction: 310°NW
Pressure: 30.06"   Gusts: NA
Location:  42.37°N, 74.16°W
Report Text: KALB 191620Z 31014KT 10SM BKN025 BKN038 BKN055 M01/M06 A3006 RMK AO2 T10061061
Loading
Personal Weather Stations






























Interactive Weather Map New forecast layout! Learn more

10-Day Weather Forecast

Advertisements
Track Severe Weather on mobile